createdAt,value
2017-10-01T00:05:02.533Z,1018.079
2017-10-01T00:07:57.272Z,1018.047
2017-10-01T00:10:52.032Z,1018.065
2017-10-01T00:13:46.734Z,1018.045
2017-10-01T00:16:41.542Z,1018.090
2017-10-01T00:19:36.508Z,1018.030
2017-10-01T00:22:31.266Z,1018.092
2017-10-01T00:25:25.921Z,1018.114
2017-10-01T00:28:20.592Z,1018.096
2017-10-01T00:31:15.249Z,1018.114
2017-10-01T00:34:09.945Z,1018.140
2017-10-01T00:39:59.157Z,1018.123
2017-10-01T00:42:53.743Z,1018.154
2017-10-01T00:45:48.270Z,1018.066
2017-10-01T00:48:42.979Z,1018.058
2017-10-01T00:51:37.489Z,1018.077
2017-10-01T00:54:32.163Z,1018.120
2017-10-01T00:57:26.724Z,1018.086
2017-10-01T01:03:15.987Z,1018.163
2017-10-01T01:09:05.278Z,1018.222
2017-10-01T01:11:59.821Z,1018.268
2017-10-01T01:17:48.891Z,1018.277
2017-10-01T01:23:37.924Z,1018.279
2017-10-01T01:26:32.497Z,1018.255
2017-10-01T01:29:27.094Z,1018.276
2017-10-01T01:32:21.688Z,1018.287
2017-10-01T01:35:16.252Z,1018.328
2017-10-01T01:38:10.859Z,1018.366
2017-10-01T01:44:00.129Z,1018.439
2017-10-01T01:46:54.843Z,1018.457
2017-10-01T01:49:49.541Z,1018.493
2017-10-01T01:58:33.614Z,1018.483
2017-10-01T02:04:23.245Z,1018.526
2017-10-01T02:07:18.147Z,1018.537
2017-10-01T02:16:02.396Z,1018.552
2017-10-01T02:24:46.641Z,1018.583
2017-10-01T02:27:41.340Z,1018.623
2017-10-01T02:30:36.145Z,1018.645
2017-10-01T02:33:30.859Z,1018.672
2017-10-01T02:36:25.642Z,1018.705
2017-10-01T02:39:20.490Z,1018.732
2017-10-01T02:42:15.270Z,1018.749
2017-10-01T02:45:10.053Z,1018.777
2017-10-01T02:48:04.756Z,1018.798
2017-10-01T02:50:59.560Z,1018.809
2017-10-01T02:53:54.310Z,1018.791
2017-10-01T02:56:49.029Z,1018.830
2017-10-01T02:59:43.830Z,1018.857
2017-10-01T03:02:38.613Z,1018.882
2017-10-01T03:05:33.322Z,1018.907
2017-10-01T03:08:28.436Z,1018.925
2017-10-01T03:14:17.928Z,1018.951
2017-10-01T03:20:07.610Z,1018.977
2017-10-01T03:25:57.344Z,1018.994
2017-10-01T03:28:52.228Z,1019.053
2017-10-01T03:31:47.066Z,1019.059
2017-10-01T03:34:41.890Z,1019.064
2017-10-01T03:37:36.698Z,1019.063
2017-10-01T03:40:31.535Z,1019.063
2017-10-01T03:43:26.297Z,1019.108
2017-10-01T03:46:20.961Z,1019.128
2017-10-01T03:49:15.655Z,1019.154
2017-10-01T03:55:05.179Z,1019.121
2017-10-01T03:57:59.974Z,1019.130
2017-10-01T04:00:54.636Z,1019.145
2017-10-01T04:06:44.156Z,1019.193
2017-10-01T04:09:38.919Z,1019.212
2017-10-01T04:12:34.189Z,1019.237
2017-10-01T04:15:28.821Z,1019.233
2017-10-01T04:18:23.619Z,1019.269
2017-10-01T04:21:18.321Z,1019.298
2017-10-01T04:24:13.010Z,1019.330
2017-10-01T04:27:07.821Z,1019.351
2017-10-01T04:30:02.568Z,1019.357
2017-10-01T04:32:57.352Z,1019.345
2017-10-01T04:35:52.083Z,1019.400
2017-10-01T04:41:41.600Z,1019.473
2017-10-01T04:47:31.077Z,1019.548
2017-10-01T04:50:25.828Z,1019.591
2017-10-01T04:56:15.234Z,1019.663
2017-10-01T04:59:09.849Z,1019.663
2017-10-01T05:02:04.496Z,1019.689
2017-10-01T05:04:59.211Z,1019.707
2017-10-01T05:08:27.757Z,1019.754
2017-10-01T05:28:05.265Z,1019.715
2017-10-01T05:30:48.950Z,1019.709
2017-10-01T05:33:42.774Z,1019.742
2017-10-01T05:36:37.121Z,1019.788
2017-10-01T05:39:31.500Z,1019.782
2017-10-01T05:47:08.585Z,1019.803
2017-10-01T05:50:14.797Z,1019.838
2017-10-01T05:53:02.031Z,1019.892
2017-10-01T05:55:56.341Z,1019.977
2017-10-01T05:58:50.923Z,1019.981
2017-10-01T06:09:17.581Z,1020.044
2017-10-01T06:12:01.121Z,1020.056
2017-10-01T06:14:54.773Z,1020.057
2017-10-01T06:18:11.695Z,1020.068
2017-10-01T06:27:01.081Z,1020.145
2017-10-01T06:31:37.605Z,1020.117
2017-10-01T06:34:21.676Z,1020.136
2017-10-01T06:37:15.604Z,1020.180
2017-10-01T06:43:04.708Z,1020.205
2017-10-01T06:45:59.481Z,1020.241
2017-10-01T06:54:43.646Z,1020.323
2017-10-01T06:57:38.473Z,1020.366
2017-10-01T07:00:33.138Z,1020.413
2017-10-01T07:30:10.779Z,1020.782
2017-10-01T07:33:16.748Z,1020.801
2017-10-01T08:23:59.424Z,1021.096
2017-10-01T08:26:53.902Z,1021.119
